Time;durP1;ratioP1;P1;durP2;ratioP2;P2;SDS_P1;SDS_P2;PMS_P1;PMS_P2;Temp;Humidity;BMP_temperature;BMP_pressure;BME280_temperature;BME280_humidity;BME280_pressure;Samples;Min_cycle;Max_cycle;Signal;HPM_P1;HPM_P2
2022/06/25 00:01:15;;;;;;;;;9.00;9.00;;;;;;;;5283211;27;8771;-71
2022/06/25 00:03:47;;;;;;;;;8.50;8.50;;;;;;;;5276320;27;8956;-70
2022/06/25 00:06:19;;;;;;;;;6.00;6.00;;;;;;;;5281696;28;8781;-69
2022/06/25 00:08:50;;;;;;;;;14.25;14.00;;;;;;;;5254680;28;8766;-69
2022/06/25 00:14:11;;;;;;;;;24.80;24.80;;;;;;;;5289801;28;8942;-69
2022/06/25 00:16:42;;;;;;;;;30.80;29.20;;;;;;;;5271352;28;8770;-69
2022/06/25 00:19:31;;;;;;;;;26.80;26.40;;;;;;;;5302791;27;8780;-69
2022/06/25 00:22:20;;;;;;;;;30.00;29.20;;;;;;;;5311127;27;8748;-71
2022/06/25 00:24:51;;;;;;;;;30.00;28.40;;;;;;;;5311131;27;9505;-69
2022/06/25 00:27:22;;;;;;;;;28.80;28.20;;;;;;;;5289539;28;8875;-69
2022/06/25 00:29:54;;;;;;;;;28.60;28.60;;;;;;;;5271358;28;9623;-69
2022/06/25 00:32:25;;;;;;;;;18.00;18.00;;;;;;;;5289241;28;8800;-68
2022/06/25 00:34:56;;;;;;;;;8.00;8.00;;;;;;;;5250239;28;8799;-71
2022/06/25 00:37:27;;;;;;;;;8.00;8.00;;;;;;;;5303805;27;8802;-71
2022/06/25 00:39:58;;;;;;;;;7.00;7.00;;;;;;;;5310498;27;8832;-71
2022/06/25 00:42:29;;;;;;;;;5.75;5.75;;;;;;;;5310187;27;8788;-71
2022/06/25 00:45:00;;;;;;;;;6.75;6.75;;;;;;;;5289595;27;9003;-71
2022/06/25 00:47:50;;;;;;;;;5.75;5.75;;;;;;;;5308654;27;8791;-70
2022/06/25 00:50:21;;;;;;;;;6.00;6.00;;;;;;;;5310222;27;8788;-70
2022/06/25 00:52:54;;;;;;;;;5.50;5.50;;;;;;;;5291855;27;8788;-71
2022/06/25 00:55:26;;;;;;;;;6.50;6.50;;;;;;;;5291857;27;8795;-71
2022/06/25 00:58:01;;;;;;;;;7.00;7.00;;;;;;;;5310391;27;8772;-70
2022/06/25 01:00:51;;;;;;;;;9.25;9.25;;;;;;;;5291172;27;8818;-70
2022/06/25 01:03:40;;;;;;;;;8.50;8.50;;;;;;;;5288782;28;8774;-70
2022/06/25 01:06:30;;;;;;;;;11.00;11.00;;;;;;;;5293006;27;8796;-70
2022/06/25 01:09:01;;;;;;;;;12.50;12.50;;;;;;;;5274478;27;8787;-70
2022/06/25 01:11:32;;;;;;;;;25.00;25.00;;;;;;;;5309903;27;8783;-71
2022/06/25 01:14:07;;;;;;;;;22.50;22.00;;;;;;;;5274500;27;8779;-71
2022/06/25 01:16:39;;;;;;;;;23.00;23.00;;;;;;;;5274741;27;8768;-70
2022/06/25 01:19:11;;;;;;;;;15.60;15.20;;;;;;;;5274116;27;8764;-71
2022/06/25 01:21:44;;;;;;;;;16.00;16.00;;;;;;;;5257625;27;9628;-71
2022/06/25 01:24:34;;;;;;;;;18.40;18.20;;;;;;;;5309609;27;8818;-70
2022/06/25 01:27:16;;;;;;;;;24.00;24.00;;;;;;;;5281357;28;8997;-69
2022/06/25 01:30:07;;;;;;;;;18.75;18.50;;;;;;;;5273198;28;8819;-71
2022/06/25 01:32:38;;;;;;;;;42.00;36.00;;;;;;;;5270013;28;8770;-70
2022/06/25 01:35:09;;;;;;;;;27.60;27.00;;;;;;;;5270647;28;8778;-70
2022/06/25 01:37:59;;;;;;;;;25.80;25.40;;;;;;;;5273600;28;9469;-69
2022/06/25 01:40:31;;;;;;;;;26.75;26.75;;;;;;;;5288508;27;8773;-70
2022/06/25 01:43:03;;;;;;;;;24.40;24.40;;;;;;;;5232550;28;9887;-70
2022/06/25 01:45:52;;;;;;;;;25.00;25.00;;;;;;;;5252677;27;8784;-71
2022/06/25 01:48:23;;;;;;;;;10.00;10.00;;;;;;;;5290865;27;8775;-70
2022/06/25 01:50:55;;;;;;;;;11.75;11.75;;;;;;;;5291127;27;8771;-69
2022/06/25 01:53:45;;;;;;;;;9.50;9.50;;;;;;;;5309367;27;8786;-69
2022/06/25 01:56:16;;;;;;;;;7.50;7.50;;;;;;;;5274011;27;8821;-69
2022/06/25 01:58:47;;;;;;;;;4.50;4.50;;;;;;;;5309351;27;8764;-69
2022/06/25 02:01:19;;;;;;;;;6.50;6.50;;;;;;;;5264579;28;8780;-70
2022/06/25 02:03:51;;;;;;;;;10.00;10.00;;;;;;;;5282553;28;8768;-72
2022/06/25 02:06:22;;;;;;;;;8.50;8.50;;;;;;;;5249209;28;8803;-69
2022/06/25 02:08:54;;;;;;;;;18.75;18.75;;;;;;;;5249379;28;8771;-69
2022/06/25 02:11:25;;;;;;;;;27.80;26.60;;;;;;;;5267187;28;8764;-69
2022/06/25 02:13:56;;;;;;;;;27.40;26.20;;;;;;;;5248961;28;8795;-69
2022/06/25 02:16:27;;;;;;;;;35.60;32.40;;;;;;;;5266773;28;9544;-69
2022/06/25 02:18:58;;;;;;;;;39.20;35.20;;;;;;;;5274908;27;8772;-69
2022/06/25 02:21:48;;;;;;;;;9.50;9.00;;;;;;;;5293059;28;9508;-70
2022/06/25 02:24:21;;;;;;;;;11.00;11.00;;;;;;;;5252571;28;8810;-70
2022/06/25 02:26:52;;;;;;;;;7.25;7.25;;;;;;;;5278210;27;8898;-70
2022/06/25 02:29:23;;;;;;;;;6.00;6.00;;;;;;;;5290486;27;8756;-71
2022/06/25 02:31:54;;;;;;;;;16.50;16.50;;;;;;;;5262295;28;8833;-70
2022/06/25 02:34:25;;;;;;;;;8.75;8.75;;;;;;;;5266002;28;8808;-70
2022/06/25 02:36:56;;;;;;;;;6.75;6.75;;;;;;;;5252902;27;8816;-71
2022/06/25 02:39:30;;;;;;;;;5.75;5.75;;;;;;;;5271472;27;8788;-70
2022/06/25 02:42:19;;;;;;;;;9.50;9.50;;;;;;;;5308714;27;8748;-68
2022/06/25 02:44:51;;;;;;;;;15.00;15.00;;;;;;;;5273431;27;8827;-70
2022/06/25 02:47:21;;;;;;;;;12.75;12.75;;;;;;;;5290649;27;8775;-68
2022/06/25 02:50:11;;;;;;;;;10.50;10.50;;;;;;;;5279768;28;8828;-68
2022/06/25 02:52:45;;;;;;;;;12.25;12.00;;;;;;;;5235338;28;8788;-69
2022/06/25 02:58:54;;;;;;;;;6.50;6.50;;;;;;;;5272533;28;8858;-68
2022/06/25 03:01:01;;;;;;;;;8.00;8.00;;;;;;;;5312921;27;8796;-69
2022/06/25 03:03:32;;;;;;;;;5.25;5.25;;;;;;;;5293982;27;8783;-70
2022/06/25 03:06:22;;;;;;;;;7.00;7.00;;;;;;;;5279785;27;9490;-70
2022/06/25 03:09:11;;;;;;;;;3.50;3.50;;;;;;;;5312400;27;8895;-70
2022/06/25 03:12:01;;;;;;;;;7.00;7.00;;;;;;;;5296993;27;8755;-70
2022/06/25 03:14:33;;;;;;;;;8.25;8.25;;;;;;;;5277458;28;8832;-68
2022/06/25 03:17:23;;;;;;;;;12.75;12.75;;;;;;;;5290883;28;8880;-69
2022/06/25 03:20:12;;;;;;;;;19.75;19.00;;;;;;;;5276207;28;8777;-70
2022/06/25 03:22:52;;;;;;;;;30.20;30.00;;;;;;;;5261631;27;8801;-69
2022/06/25 03:25:25;;;;;;;;;12.75;12.75;;;;;;;;5288979;27;9527;-70
2022/06/25 03:28:00;;;;;;;;;6.25;6.25;;;;;;;;5272832;28;8778;-71
2022/06/25 03:30:35;;;;;;;;;6.50;6.50;;;;;;;;5255661;28;8800;-71
2022/06/25 03:33:10;;;;;;;;;9.00;9.00;;;;;;;;5272984;28;8789;-72
2022/06/25 03:35:47;;;;;;;;;8.00;8.00;;;;;;;;5272087;27;8994;-71
2022/06/25 03:38:37;;;;;;;;;8.00;8.00;;;;;;;;5254594;28;8792;-71
2022/06/25 03:44:03;;;;;;;;;26.25;25.75;;;;;;;;5251151;28;8772;-71
2022/06/25 03:46:35;;;;;;;;;26.60;26.60;;;;;;;;5234295;28;8802;-71
2022/06/25 03:49:06;;;;;;;;;5.25;5.25;;;;;;;;5251359;28;8823;-71
2022/06/25 03:51:58;;;;;;;;;6.25;6.25;;;;;;;;5254015;27;8773;-71
2022/06/25 03:54:30;;;;;;;;;6.50;6.50;;;;;;;;5308674;27;8783;-70
2022/06/25 03:57:01;;;;;;;;;6.00;6.00;;;;;;;;5287628;28;8904;-70
2022/06/25 03:59:51;;;;;;;;;4.75;4.75;;;;;;;;5290283;28;8758;-70
2022/06/25 04:02:29;;;;;;;;;7.25;7.25;;;;;;;;5271709;28;9415;-71
2022/06/25 04:05:26;;;;;;;;;8.00;8.00;;;;;;;;5235544;28;8826;-70
2022/06/25 04:08:01;;;;;;;;;6.50;6.50;;;;;;;;5254701;28;9512;-71
2022/06/25 04:10:32;;;;;;;;;5.00;5.00;;;;;;;;5289518;28;8782;-71
2022/06/25 04:13:03;;;;;;;;;11.00;11.00;;;;;;;;5266391;28;8780;-70
2022/06/25 04:15:34;;;;;;;;;11.00;11.00;;;;;;;;5267320;28;8882;-70
2022/06/25 04:18:06;;;;;;;;;13.25;13.25;;;;;;;;5263111;27;8842;-71
2022/06/25 04:20:55;;;;;;;;;10.75;10.75;;;;;;;;5310810;27;9525;-71
2022/06/25 04:23:27;;;;;;;;;18.00;18.00;;;;;;;;5282149;28;8802;-73
2022/06/25 04:25:58;;;;;;;;;13.50;13.50;;;;;;;;5253637;28;8818;-72
2022/06/25 04:31:36;;;;;;;;;4.75;4.75;;;;;;;;5271162;28;9531;-71
2022/06/25 04:34:09;;;;;;;;;6.00;6.00;;;;;;;;5251162;28;8849;-71
2022/06/25 04:36:41;;;;;;;;;5.50;5.50;;;;;;;;5256369;27;8800;-72
2022/06/25 04:39:24;;;;;;;;;3.50;3.50;;;;;;;;5273324;27;8764;-71
2022/06/25 04:41:56;;;;;;;;;4.50;4.50;;;;;;;;5274770;27;8795;-70
2022/06/25 04:44:31;;;;;;;;;4.25;4.25;;;;;;;;5291949;27;8791;-71
2022/06/25 04:47:03;;;;;;;;;16.50;16.25;;;;;;;;5275170;27;8775;-71
2022/06/25 04:49:52;;;;;;;;;10.25;9.75;;;;;;;;5262725;28;8770;-71
2022/06/25 04:52:23;;;;;;;;;7.50;7.00;;;;;;;;5288881;28;8839;-71
2022/06/25 04:54:55;;;;;;;;;2.25;2.25;;;;;;;;5270704;28;8892;-73
2022/06/25 04:57:28;;;;;;;;;7.75;7.75;;;;;;;;5271296;28;8770;-72
2022/06/25 05:00:17;;;;;;;;;5.00;5.00;;;;;;;;5270803;28;8811;-68
2022/06/25 05:02:50;;;;;;;;;5.00;5.00;;;;;;;;5270071;28;8836;-69
2022/06/25 05:05:23;;;;;;;;;4.25;4.25;;;;;;;;5288548;28;8786;-69
2022/06/25 05:07:55;;;;;;;;;5.00;5.00;;;;;;;;5237437;28;8812;-71
2022/06/25 05:10:31;;;;;;;;;4.00;4.00;;;;;;;;5254369;28;8784;-69
2022/06/25 05:13:14;;;;;;;;;6.25;6.25;;;;;;;;5269755;28;8766;-68
2022/06/25 05:15:48;;;;;;;;;4.50;4.50;;;;;;;;5253573;28;8782;-68
2022/06/25 05:18:38;;;;;;;;;4.50;4.50;;;;;;;;5288614;28;8758;-68
2022/06/25 05:21:09;;;;;;;;;14.50;14.50;;;;;;;;5288514;28;8851;-69
2022/06/25 05:23:40;;;;;;;;;29.20;29.00;;;;;;;;5280136;27;9613;-69
2022/06/25 05:26:11;;;;;;;;;26.00;25.00;;;;;;;;5274062;27;8807;-69
2022/06/25 05:28:42;;;;;;;;;10.75;10.50;;;;;;;;5302576;27;8912;-69
2022/06/25 05:31:13;;;;;;;;;8.50;8.50;;;;;;;;5285386;27;8829;-69
2022/06/25 05:33:45;;;;;;;;;2.75;2.75;;;;;;;;5255531;28;8784;-69
2022/06/25 05:36:17;;;;;;;;;10.25;10.25;;;;;;;;5250665;27;8796;-69
2022/06/25 05:38:48;;;;;;;;;0.00;0.00;;;;;;;;5289100;27;8792;-71
2022/06/25 05:41:37;;;;;;;;;3.00;3.00;;;;;;;;5275348;27;8950;-69
2022/06/25 05:44:27;;;;;;;;;3.75;3.75;;;;;;;;5309550;27;8792;-68
2022/06/25 05:46:58;;;;;;;;;3.75;3.75;;;;;;;;5309423;27;8890;-69
2022/06/25 05:49:29;;;;;;;;;3.00;3.00;;;;;;;;5291103;27;8910;-69
2022/06/25 05:52:00;;;;;;;;;3.75;3.75;;;;;;;;5271078;27;8863;-69
2022/06/25 05:54:49;;;;;;;;;2.25;2.25;;;;;;;;5287851;28;9636;-69
2022/06/25 05:57:21;;;;;;;;;2.67;2.67;;;;;;;;5279354;27;8935;-71
2022/06/25 06:00:11;;;;;;;;;3.25;3.25;;;;;;;;5276515;27;11353;-69
2022/06/25 06:02:45;;;;;;;;;3.25;3.25;;;;;;;;5290886;27;9466;-69
2022/06/25 06:05:35;;;;;;;;;3.75;3.75;;;;;;;;5276451;27;8804;-70
2022/06/25 06:08:06;;;;;;;;;4.00;4.00;;;;;;;;5290710;27;8773;-69
2022/06/25 06:10:37;;;;;;;;;1.00;1.00;;;;;;;;5309250;27;9521;-69
2022/06/25 06:13:08;;;;;;;;;2.25;2.25;;;;;;;;5290308;27;8788;-69
2022/06/25 06:15:39;;;;;;;;;1.25;1.25;;;;;;;;5290055;27;8779;-70
2022/06/25 06:18:10;;;;;;;;;2.25;2.25;;;;;;;;5251811;28;8804;-69
2022/06/25 06:20:41;;;;;;;;;4.00;4.00;;;;;;;;5266564;28;8784;-69
2022/06/25 06:23:12;;;;;;;;;1.75;1.75;;;;;;;;5266936;28;8780;-69
2022/06/25 06:25:43;;;;;;;;;0.00;0.00;;;;;;;;5269747;28;8807;-69
2022/06/25 06:28:14;;;;;;;;;18.00;17.25;;;;;;;;5269649;28;8907;-69
2022/06/25 06:30:46;;;;;;;;;4.50;4.50;;;;;;;;5287974;27;8888;-69
2022/06/25 06:33:17;;;;;;;;;2.00;2.00;;;;;;;;5273606;28;8826;-69
2022/06/25 06:36:07;;;;;;;;;0.25;0.25;;;;;;;;5273904;27;8859;-70
2022/06/25 06:38:38;;;;;;;;;2.00;2.00;;;;;;;;5298358;27;8778;-68
2022/06/25 06:41:10;;;;;;;;;2.00;2.00;;;;;;;;5256516;28;8774;-69
2022/06/25 06:43:40;;;;;;;;;2.00;2.00;;;;;;;;5291608;28;8766;-69
2022/06/25 06:46:13;;;;;;;;;2.75;2.75;;;;;;;;5291590;28;9427;-69
2022/06/25 06:49:02;;;;;;;;;0.00;0.00;;;;;;;;5259034;28;8795;-69
2022/06/25 06:51:33;;;;;;;;;3.67;3.67;;;;;;;;5273819;27;8762;-69
2022/06/25 06:54:04;;;;;;;;;0.50;0.50;;;;;;;;5294166;27;8856;-69
2022/06/25 06:56:55;;;;;;;;;1.00;1.00;;;;;;;;5289946;28;9520;-69
2022/06/25 06:59:27;;;;;;;;;2.00;2.00;;;;;;;;5273281;28;8904;-69
2022/06/25 07:01:58;;;;;;;;;0.00;0.00;;;;;;;;5291149;28;8812;-69
2022/06/25 07:04:29;;;;;;;;;2.00;2.00;;;;;;;;5291068;28;8777;-70
2022/06/25 07:07:00;;;;;;;;;2.00;2.00;;;;;;;;5291126;28;8758;-71
2022/06/25 07:09:31;;;;;;;;;1.00;1.00;;;;;;;;5272801;28;8826;-69
2022/06/25 07:12:03;;;;;;;;;3.25;3.25;;;;;;;;5290898;28;8893;-69
2022/06/25 07:14:52;;;;;;;;;2.50;2.25;;;;;;;;5275493;28;8770;-70
2022/06/25 07:17:41;;;;;;;;;1.75;1.75;;;;;;;;5304716;27;8818;-69
2022/06/25 07:20:12;;;;;;;;;3.00;3.00;;;;;;;;5276524;27;8784;-70
2022/06/25 07:22:43;;;;;;;;;2.00;2.00;;;;;;;;5276820;27;9811;-70
2022/06/25 07:25:14;;;;;;;;;2.00;2.00;;;;;;;;5293576;27;8796;-70
2022/06/25 07:27:46;;;;;;;;;2.25;2.25;;;;;;;;5310180;27;8792;-69
2022/06/25 07:30:17;;;;;;;;;3.75;3.75;;;;;;;;5259643;27;8764;-68
2022/06/25 07:32:48;;;;;;;;;2.00;2.00;;;;;;;;5293593;27;8768;-69
2022/06/25 07:35:19;;;;;;;;;2.50;2.50;;;;;;;;5276223;27;8836;-69
2022/06/25 07:37:50;;;;;;;;;2.75;2.75;;;;;;;;5277789;28;8766;-69
2022/06/25 07:40:39;;;;;;;;;15.50;15.50;;;;;;;;5272905;28;8774;-68
2022/06/25 07:43:29;;;;;;;;;3.25;3.25;;;;;;;;5271659;28;8767;-68
2022/06/25 07:46:00;;;;;;;;;3.33;3.33;;;;;;;;5290103;28;8814;-69
2022/06/25 07:48:50;;;;;;;;;15.25;15.00;;;;;;;;5304007;27;11335;-68
2022/06/25 07:54:30;;;;;;;;;3.75;3.75;;;;;;;;5311557;27;8783;-70
2022/06/25 07:57:01;;;;;;;;;1.75;1.75;;;;;;;;5284068;28;8794;-69
2022/06/25 07:59:32;;;;;;;;;5.25;5.25;;;;;;;;5238399;28;8754;-67
2022/06/25 08:02:03;;;;;;;;;19.75;19.25;;;;;;;;5289688;28;8765;-68
2022/06/25 08:04:34;;;;;;;;;34.00;31.67;;;;;;;;5271385;28;8774;-68
2022/06/25 08:07:05;;;;;;;;;12.00;11.00;;;;;;;;5254979;28;11350;-69
2022/06/25 08:09:36;;;;;;;;;10.00;10.00;;;;;;;;5289691;28;8804;-68
2022/06/25 08:12:07;;;;;;;;;1.25;1.25;;;;;;;;5283310;27;8791;-68
2022/06/25 08:14:38;;;;;;;;;3.25;3.25;;;;;;;;5311058;27;8756;-69
2022/06/25 08:17:28;;;;;;;;;1.00;1.00;;;;;;;;5264792;28;8929;-68
2022/06/25 08:20:01;;;;;;;;;1.00;1.00;;;;;;;;5271351;28;9630;-69
2022/06/25 08:22:34;;;;;;;;;2.50;2.50;;;;;;;;5289722;28;9547;-69
2022/06/25 08:25:07;;;;;;;;;3.25;3.25;;;;;;;;5290520;27;8850;-69
2022/06/25 08:27:51;;;;;;;;;0.00;0.00;;;;;;;;5271442;28;8777;-69
2022/06/25 08:30:42;;;;;;;;;1.00;1.00;;;;;;;;5289507;28;9484;-70
2022/06/25 08:33:14;;;;;;;;;2.00;2.00;;;;;;;;5270980;28;8774;-68
2022/06/25 08:35:45;;;;;;;;;1.00;1.00;;;;;;;;5254275;28;8896;-69
2022/06/25 08:38:16;;;;;;;;;1.50;1.50;;;;;;;;5307829;27;8902;-69
2022/06/25 08:40:47;;;;;;;;;0.25;0.25;;;;;;;;5307807;27;8819;-68
2022/06/25 08:43:18;;;;;;;;;1.33;1.33;;;;;;;;5292066;27;8910;-68
2022/06/25 08:45:49;;;;;;;;;2.00;2.00;;;;;;;;5310269;27;9168;-68
2022/06/25 08:48:33;;;;;;;;;1.00;1.00;;;;;;;;5309052;27;10736;-68
2022/06/25 08:51:04;;;;;;;;;2.50;2.50;;;;;;;;5292302;27;8759;-69
2022/06/25 08:53:35;;;;;;;;;3.00;3.00;;;;;;;;5275054;27;8872;-68
2022/06/25 08:56:06;;;;;;;;;4.25;3.75;;;;;;;;5270862;28;8786;-70
2022/06/25 08:58:37;;;;;;;;;3.00;3.00;;;;;;;;5288821;28;8801;-68
2022/06/25 09:01:08;;;;;;;;;3.75;3.75;;;;;;;;5283375;27;8784;-68
2022/06/25 09:03:39;;;;;;;;;3.25;3.25;;;;;;;;5268252;28;8784;-70
2022/06/25 09:06:14;;;;;;;;;1.00;1.00;;;;;;;;5267712;28;8814;-69
2022/06/25 09:09:04;;;;;;;;;0.50;0.50;;;;;;;;5253540;27;8898;-69
2022/06/25 09:11:47;;;;;;;;;14.50;13.50;;;;;;;;5289022;28;8765;-68
2022/06/25 09:14:22;;;;;;;;;14.00;14.00;;;;;;;;5270521;28;9511;-68
2022/06/25 09:16:54;;;;;;;;;24.75;23.75;;;;;;;;5288412;28;8766;-68
2022/06/25 09:19:29;;;;;;;;;3.00;3.00;;;;;;;;5265112;28;8776;-68
2022/06/25 09:22:02;;;;;;;;;3.00;3.00;;;;;;;;5232868;27;8760;-69
2022/06/25 09:24:53;;;;;;;;;2.00;2.00;;;;;;;;5290713;27;8817;-69
2022/06/25 09:27:36;;;;;;;;;2.50;2.25;;;;;;;;5253436;28;8758;-68
2022/06/25 09:30:14;;;;;;;;;1.75;1.75;;;;;;;;5253371;28;8778;-69
2022/06/25 09:32:46;;;;;;;;;2.00;2.00;;;;;;;;5253744;28;8770;-69
2022/06/25 09:35:41;;;;;;;;;0.00;0.00;;;;;;;;5273346;28;8881;-69
2022/06/25 09:38:16;;;;;;;;;2.00;2.00;;;;;;;;5246654;27;8775;-69
2022/06/25 09:40:48;;;;;;;;;3.25;3.25;;;;;;;;5257416;27;9580;-69
2022/06/25 09:43:39;;;;;;;;;9.50;9.50;;;;;;;;5288832;27;9012;-69
2022/06/25 09:46:10;;;;;;;;;12.25;11.75;;;;;;;;5309526;27;8784;-69
2022/06/25 09:48:41;;;;;;;;;32.67;31.00;;;;;;;;5290998;27;8787;-69
2022/06/25 09:51:18;;;;;;;;;7.25;6.50;;;;;;;;5280108;28;11457;-69
2022/06/25 09:53:57;;;;;;;;;1.50;1.50;;;;;;;;5254169;27;8773;-69
2022/06/25 09:56:29;;;;;;;;;1.75;1.75;;;;;;;;5245508;28;8776;-69
2022/06/25 09:59:00;;;;;;;;;2.00;2.00;;;;;;;;5295099;27;8864;-69
2022/06/25 10:01:50;;;;;;;;;3.75;3.75;;;;;;;;5296763;27;8798;-69
2022/06/25 10:04:21;;;;;;;;;3.00;3.00;;;;;;;;5292372;27;8903;-69
2022/06/25 10:06:53;;;;;;;;;6.25;6.25;;;;;;;;5276229;27;8820;-69
2022/06/25 10:09:43;;;;;;;;;4.00;4.00;;;;;;;;5298635;27;9525;-68
2022/06/25 10:12:14;;;;;;;;;4.00;4.00;;;;;;;;5273867;28;8778;-68
2022/06/25 10:14:45;;;;;;;;;2.00;2.00;;;;;;;;5292461;28;8991;-68
2022/06/25 10:17:16;;;;;;;;;2.75;2.75;;;;;;;;5291008;28;8760;-71
2022/06/25 10:19:47;;;;;;;;;3.00;3.00;;;;;;;;5291758;28;8799;-69
2022/06/25 10:22:37;;;;;;;;;3.25;3.25;;;;;;;;5292289;28;8790;-69
2022/06/25 10:25:13;;;;;;;;;3.00;3.00;;;;;;;;5291815;28;8835;-69
2022/06/25 10:27:48;;;;;;;;;3.00;3.00;;;;;;;;5292134;27;8843;-69
2022/06/25 10:30:38;;;;;;;;;2.75;2.75;;;;;;;;5288569;28;9622;-70
2022/06/25 10:33:08;;;;;;;;;4.00;4.00;;;;;;;;5273977;28;8757;-70
2022/06/25 10:35:40;;;;;;;;;1.75;1.75;;;;;;;;5291751;28;9506;-69
2022/06/25 10:38:21;;;;;;;;;1.00;1.00;;;;;;;;5291533;28;8939;-69
2022/06/25 10:40:55;;;;;;;;;2.75;2.75;;;;;;;;5301297;27;8916;-69
2022/06/25 10:43:38;;;;;;;;;2.00;2.00;;;;;;;;5294263;27;8772;-69
2022/06/25 10:46:20;;;;;;;;;0.50;0.50;;;;;;;;5277920;27;8788;-70
2022/06/25 10:49:10;;;;;;;;;2.75;2.75;;;;;;;;5312947;27;9529;-73
2022/06/25 10:51:46;;;;;;;;;4.00;4.00;;;;;;;;5313516;27;9465;-70
2022/06/25 10:54:26;;;;;;;;;2.00;2.00;;;;;;;;5278673;27;8792;-70
2022/06/25 10:56:58;;;;;;;;;3.50;3.50;;;;;;;;5237974;28;8808;-69
2022/06/25 10:59:34;;;;;;;;;3.00;3.00;;;;;;;;5235248;28;8772;-69
2022/06/25 11:02:24;;;;;;;;;3.50;3.50;;;;;;;;5270410;28;8776;-68
2022/06/25 11:04:55;;;;;;;;;1.25;1.25;;;;;;;;5270249;28;8831;-69
2022/06/25 11:07:44;;;;;;;;;3.75;3.75;;;;;;;;5310228;27;8855;-69
2022/06/25 11:10:15;;;;;;;;;5.33;5.33;;;;;;;;5312518;27;8756;-69
2022/06/25 11:12:47;;;;;;;;;1.50;1.50;;;;;;;;5310118;27;11352;-69
2022/06/25 11:15:18;;;;;;;;;6.00;6.00;;;;;;;;5294046;27;8864;-71
2022/06/25 11:17:49;;;;;;;;;2.00;2.00;;;;;;;;5299857;27;8774;-70
2022/06/25 11:20:21;;;;;;;;;5.00;5.00;;;;;;;;5290611;28;8769;-69
2022/06/25 11:22:52;;;;;;;;;3.75;3.75;;;;;;;;5272602;28;10780;-70
2022/06/25 11:31:04;;;;;;;;;3.00;3.00;;;;;;;;5290575;28;8798;-70
2022/06/25 11:33:38;;;;;;;;;5.00;5.00;;;;;;;;5257828;28;8802;-70
2022/06/25 11:36:10;;;;;;;;;2.75;2.75;;;;;;;;5272491;27;8786;-70
2022/06/25 11:38:42;;;;;;;;;3.75;3.75;;;;;;;;5272987;28;8810;-70
2022/06/25 11:41:28;;;;;;;;;2.00;2.00;;;;;;;;5255623;28;8766;-70
2022/06/25 11:44:05;;;;;;;;;5.00;5.00;;;;;;;;5290583;28;8782;-70
2022/06/25 11:46:36;;;;;;;;;0.00;0.00;;;;;;;;5256028;28;8812;-70
2022/06/25 11:49:07;;;;;;;;;2.75;2.75;;;;;;;;5290475;28;9492;-70
2022/06/25 11:51:45;;;;;;;;;3.00;3.00;;;;;;;;5255103;28;8794;-70
2022/06/25 11:54:20;;;;;;;;;3.00;3.00;;;;;;;;5251628;28;8768;-70
2022/06/25 11:56:55;;;;;;;;;5.25;5.25;;;;;;;;5230662;27;9382;-68
2022/06/25 11:59:27;;;;;;;;;3.50;3.50;;;;;;;;5276046;27;8768;-68
2022/06/25 12:02:03;;;;;;;;;2.50;2.50;;;;;;;;5292794;27;8805;-69
2022/06/25 12:04:46;;;;;;;;;2.50;2.50;;;;;;;;5293042;27;9466;-69
2022/06/25 12:07:22;;;;;;;;;4.50;4.50;;;;;;;;5293325;27;8783;-68
2022/06/25 12:09:58;;;;;;;;;2.25;2.25;;;;;;;;5293322;27;8776;-69
2022/06/25 12:12:30;;;;;;;;;5.00;5.00;;;;;;;;5297337;27;8798;-70
2022/06/25 12:15:03;;;;;;;;;4.50;4.50;;;;;;;;5271830;28;9536;-69
2022/06/25 12:17:36;;;;;;;;;4.00;4.00;;;;;;;;5286357;28;8816;-70
2022/06/25 12:20:09;;;;;;;;;5.00;5.00;;;;;;;;5289563;28;8824;-70
2022/06/25 12:22:41;;;;;;;;;4.75;4.75;;;;;;;;5271292;28;8770;-70
2022/06/25 12:25:33;;;;;;;;;5.00;5.00;;;;;;;;5254308;28;9614;-70
2022/06/25 12:28:35;;;;;;;;;2.50;2.50;;;;;;;;5274592;28;8758;-70
2022/06/25 12:31:11;;;;;;;;;3.00;3.00;;;;;;;;5293071;27;8907;-71
2022/06/25 12:33:49;;;;;;;;;2.50;2.50;;;;;;;;5310209;27;8760;-70
2022/06/25 12:36:20;;;;;;;;;1.75;1.75;;;;;;;;5283038;28;8916;-69
2022/06/25 12:38:51;;;;;;;;;9.00;8.75;;;;;;;;5290476;27;8945;-69
2022/06/25 12:41:42;;;;;;;;;5.50;5.50;;;;;;;;5289063;28;8781;-70
2022/06/25 12:44:13;;;;;;;;;4.25;4.25;;;;;;;;5289702;28;9520;-69
2022/06/25 12:46:57;;;;;;;;;3.75;3.75;;;;;;;;5288703;28;8801;-69
2022/06/25 12:49:47;;;;;;;;;1.25;1.25;;;;;;;;5289123;28;8800;-69
2022/06/25 12:52:37;;;;;;;;;0.00;0.00;;;;;;;;5291995;27;8794;-70
2022/06/25 12:55:17;;;;;;;;;2.50;2.50;;;;;;;;5292322;27;8779;-70
2022/06/25 12:57:48;;;;;;;;;4.75;4.75;;;;;;;;5249637;28;8796;-69
2022/06/25 13:00:23;;;;;;;;;6.00;6.00;;;;;;;;5232951;28;8779;-70
2022/06/25 13:02:54;;;;;;;;;33.75;31.00;;;;;;;;5249616;28;9482;-69
2022/06/25 13:05:26;;;;;;;;;7.75;7.75;;;;;;;;5267812;28;8831;-69
2022/06/25 13:07:57;;;;;;;;;2.75;2.75;;;;;;;;5233209;28;8776;-70
2022/06/25 13:10:28;;;;;;;;;3.00;3.00;;;;;;;;5287940;28;8822;-69
2022/06/25 13:12:59;;;;;;;;;0.25;0.25;;;;;;;;5253519;28;8777;-69
2022/06/25 13:15:31;;;;;;;;;2.00;2.00;;;;;;;;5286469;27;8775;-69
2022/06/25 13:18:02;;;;;;;;;2.00;2.00;;;;;;;;5257977;27;8779;-69
2022/06/25 13:20:33;;;;;;;;;3.00;3.00;;;;;;;;5274010;27;8779;-69
2022/06/25 13:23:04;;;;;;;;;4.75;4.75;;;;;;;;5309376;27;8768;-69
2022/06/25 13:25:35;;;;;;;;;4.00;4.00;;;;;;;;5274098;27;8811;-69
2022/06/25 13:28:06;;;;;;;;;5.00;5.00;;;;;;;;5308975;27;8768;-69
2022/06/25 13:30:41;;;;;;;;;4.75;4.75;;;;;;;;5309356;27;8853;-69
2022/06/25 13:33:30;;;;;;;;;3.00;3.00;;;;;;;;5293871;27;8890;-70
2022/06/25 13:36:01;;;;;;;;;0.33;0.33;;;;;;;;5288759;28;8897;-68
2022/06/25 13:38:32;;;;;;;;;1.00;1.00;;;;;;;;5289081;28;11364;-69
2022/06/25 13:41:21;;;;;;;;;2.00;2.00;;;;;;;;5305581;27;8790;-70
2022/06/25 13:43:54;;;;;;;;;1.75;1.75;;;;;;;;5309545;27;8820;-71
2022/06/25 13:46:26;;;;;;;;;3.00;3.00;;;;;;;;5309437;27;8838;-70
2022/06/25 13:48:57;;;;;;;;;2.75;2.75;;;;;;;;5309282;27;8882;-70
2022/06/25 13:51:28;;;;;;;;;4.33;4.33;;;;;;;;5309342;27;8931;-69
2022/06/25 13:53:59;;;;;;;;;2.50;2.50;;;;;;;;5285025;27;9847;-70
2022/06/25 13:56:39;;;;;;;;;4.75;4.75;;;;;;;;5279186;28;8882;-71
2022/06/25 13:59:10;;;;;;;;;2.00;2.00;;;;;;;;5288021;28;9477;-71
2022/06/25 14:01:42;;;;;;;;;5.33;5.33;;;;;;;;5249155;28;8798;-70
2022/06/25 14:04:13;;;;;;;;;3.50;3.50;;;;;;;;5282525;28;9509;-70
2022/06/25 14:06:44;;;;;;;;;8.75;8.75;;;;;;;;5266855;28;8808;-71
2022/06/25 14:09:15;;;;;;;;;10.00;10.00;;;;;;;;5265269;28;8872;-71
2022/06/25 14:11:51;;;;;;;;;2.50;2.50;;;;;;;;5270621;28;8931;-71
2022/06/25 14:14:26;;;;;;;;;7.00;7.00;;;;;;;;5286832;28;8780;-70
2022/06/25 14:16:57;;;;;;;;;10.25;10.25;;;;;;;;5286599;28;8776;-70
2022/06/25 14:19:31;;;;;;;;;7.00;7.00;;;;;;;;5287571;28;8768;-70
2022/06/25 14:22:02;;;;;;;;;6.00;6.00;;;;;;;;5286683;28;8752;-71
2022/06/25 14:27:23;;;;;;;;;3.25;3.25;;;;;;;;5286973;28;8809;-70
2022/06/25 14:29:53;;;;;;;;;2.67;2.67;;;;;;;;5271251;27;8792;-70
2022/06/25 14:32:43;;;;;;;;;2.00;2.00;;;;;;;;5281619;28;10039;-70
2022/06/25 14:35:16;;;;;;;;;2.50;2.50;;;;;;;;5271253;28;8805;-70
2022/06/25 14:43:58;;;;;;;;;0.00;0.00;;;;;;;;5253775;28;8840;-70
2022/06/25 14:46:29;;;;;;;;;4.25;4.25;;;;;;;;5290131;28;8825;-69
2022/06/25 14:49:18;;;;;;;;;2.25;2.25;;;;;;;;5291795;28;8790;-69
2022/06/25 14:52:08;;;;;;;;;4.25;4.25;;;;;;;;5286769;28;8807;-69
2022/06/25 14:54:38;;;;;;;;;4.50;4.50;;;;;;;;5270370;28;8827;-69
2022/06/25 14:57:10;;;;;;;;;2.00;2.00;;;;;;;;5254924;27;8802;-69
2022/06/25 14:59:41;;;;;;;;;3.00;3.00;;;;;;;;5273723;27;8760;-69
2022/06/25 15:02:12;;;;;;;;;2.75;2.75;;;;;;;;5312544;27;8784;-69
2022/06/25 15:04:42;;;;;;;;;0.00;0.00;;;;;;;;5312424;27;8838;-70
2022/06/25 15:07:14;;;;;;;;;3.33;3.33;;;;;;;;5294074;27;11068;-68
2022/06/25 15:10:03;;;;;;;;;2.75;2.75;;;;;;;;5313059;27;8974;-70
2022/06/25 15:12:35;;;;;;;;;6.00;6.00;;;;;;;;5246835;28;8788;-70
2022/06/25 15:15:06;;;;;;;;;26.50;26.50;;;;;;;;5235197;28;8783;-69
2022/06/25 15:17:38;;;;;;;;;9.00;9.00;;;;;;;;5251717;28;8764;-70
2022/06/25 15:20:09;;;;;;;;;17.00;16.75;;;;;;;;5268196;28;8811;-69
2022/06/25 15:22:40;;;;;;;;;5.50;5.50;;;;;;;;5269448;28;8816;-70
2022/06/25 15:25:11;;;;;;;;;9.00;9.00;;;;;;;;5234857;28;8828;-70
2022/06/25 15:27:42;;;;;;;;;8.50;8.50;;;;;;;;5293791;27;9996;-71
2022/06/25 15:30:13;;;;;;;;;5.00;5.00;;;;;;;;5293774;27;8768;-71
2022/06/25 15:32:44;;;;;;;;;4.67;4.67;;;;;;;;5301192;27;11281;-70
2022/06/25 15:35:15;;;;;;;;;11.75;11.75;;;;;;;;5255362;28;10086;-70
2022/06/25 15:37:46;;;;;;;;;3.50;3.00;;;;;;;;5290647;28;8781;-70
2022/06/25 15:40:18;;;;;;;;;3.00;3.00;;;;;;;;5275718;28;8872;-70
2022/06/25 15:42:49;;;;;;;;;1.00;1.00;;;;;;;;5238736;28;8790;-70
2022/06/25 15:45:20;;;;;;;;;2.00;2.00;;;;;;;;5272317;28;8790;-69
2022/06/25 15:47:51;;;;;;;;;4.50;4.50;;;;;;;;5290591;28;11337;-69
2022/06/25 15:50:23;;;;;;;;;8.00;8.00;;;;;;;;5272650;28;8911;-68
2022/06/25 15:53:12;;;;;;;;;4.00;4.00;;;;;;;;5290282;28;8792;-68
2022/06/25 15:56:02;;;;;;;;;7.00;7.00;;;;;;;;5276261;28;8774;-68
2022/06/25 16:01:22;;;;;;;;;3.00;3.00;;;;;;;;5290167;28;8774;-70
2022/06/25 16:03:53;;;;;;;;;5.67;5.67;;;;;;;;5290083;28;9492;-70
2022/06/25 16:06:25;;;;;;;;;1.75;1.75;;;;;;;;5284415;27;10273;-70
2022/06/25 16:08:56;;;;;;;;;1.50;1.50;;;;;;;;5259140;27;8795;-70
2022/06/25 16:11:33;;;;;;;;;1.25;1.25;;;;;;;;5289949;27;8883;-71
2022/06/25 16:14:07;;;;;;;;;2.25;2.25;;;;;;;;5288058;28;8793;-73